Aéroport int. de Vancouver, Colombie-Britannique

Conditions des dernières 24 heures

Date / Heure
(HAP)
Conditions Temp
(°F)
Humidité
(%)
Point de rosée
(°F)
Vent
(mph)
Pression (pouces) Vis
(mi)
Humidex
01 juillet 2015
4:00 Généralement dégagé 64 83 59 ONO 20 30.1 20 *
3:00 Généralement dégagé 65 79 58 ONO 15 rafale 22 30.0 15 *
2:00 Généralement dégagé 65 76 58 ONO 23 rafale 29 30.0 15 *
1:00 Généralement dégagé 67 75 59 ONO 18 rafale 26 30.1 15 *
0:00 Généralement dégagé 68 75 60 ONO 16 rafale 24 30.0 20 76
30 juin 2015
23:00 Généralement dégagé 69 76 61 ONO 19 rafale 26 30.0 30 77
22:00 Généralement dégagé 70 74 62 O 19 30.0 30 79
21:00 Ensoleillé 70 75 62 O 8 30.0 30 80
20:00 Ensoleillé 72 74 63 OSO 6 30.0 30 82
19:00 Ensoleillé 72 75 64 SO 7 30.0 30 82
18:00 Ensoleillé 74 63 61 SO 7 30.0 30 83
17:00 Généralement ensoleillé 76   58 60 OSO 7 30.0 30 84
16:00 Généralement ensoleillé 75 61 61 O 10 30.1 30 84
15:00 Généralement ensoleillé 76   66 64 O 7 30.1 30 86
14:00 Généralement ensoleillé 75 67 64 ONO 7 30.1 30 86
13:00 Généralement ensoleillé 73 73 64 OSO 5 30.1 30 84
12:00 Généralement ensoleillé 74 71 64 OSO 11 30.1 30 85
11:00 Généralement ensoleillé 73 59 59 SSE 8 30.1 30 80
10:00 Ensoleillé 71 62 58 SSE 8 30.1 30 77
9:00 Ensoleillé 69 67 58 SE 8 30.1 30 75
8:00 Généralement ensoleillé 66 71 57 ESE 10 30.1 30 *
7:00 Généralement ensoleillé 64 75 56 ESE 11 30.1 30 *
6:00 Ensoleillé 62 80 56 ESE 8 30.1 30 *
5:00 Dégagé 61   83 56 ESE 9 30.1 30 *
4:00 Dégagé 63 75 55 ESE 11 30.0 20 *
N.D. non disponible
↑ température la plus haute
↓ température la plus basse
* Valeur non significative.

Si vous désirez plus de données historiques sur les conditions météo, s.v.p. visitez Données climatologiques en ligne.

Ce que nous faisons

Date de modification :